createdAt,value
2022-12-08T00:01:17.969Z,101066.19
2022-12-08T00:03:46.194Z,101058.91
2022-12-08T00:06:41.118Z,101050.25
2022-12-08T00:09:23.466Z,101047.41
2022-12-08T00:11:53.367Z,101036.38
2022-12-08T00:14:21.219Z,101035.34
2022-12-08T00:16:48.927Z,101032.50
2022-12-08T00:19:16.628Z,101030.66
2022-12-08T00:21:45.632Z,101030.66
2022-12-08T00:24:13.438Z,101032.25
2022-12-08T00:26:41.155Z,101035.66
2022-12-08T00:29:14.470Z,101029.41
2022-12-08T00:31:44.900Z,101026.19
2022-12-08T00:34:13.313Z,101017.03
2022-12-08T00:36:40.948Z,101012.56
2022-12-08T00:39:10.398Z,101017.78
2022-12-08T00:41:55.634Z,101012.34
2022-12-08T00:44:23.355Z,101005.50
2022-12-08T00:46:51.069Z,100998.69
2022-12-08T00:49:19.251Z,100992.88
2022-12-08T00:51:46.904Z,100996.53
2022-12-08T00:54:16.265Z,100992.09
2022-12-08T00:56:43.903Z,100984.25
2022-12-08T00:59:11.624Z,100987.06
2022-12-08T01:01:39.474Z,100977.66
2022-12-08T01:04:08.541Z,100981.28
2022-12-08T01:06:36.584Z,100978.91
2022-12-08T01:09:05.223Z,100978.91
2022-12-08T01:11:34.664Z,100972.06
2022-12-08T01:14:02.582Z,100973.91
2022-12-08T01:16:33.002Z,100971.28
2022-12-08T01:19:01.384Z,100976.50
2022-12-08T01:21:29.649Z,100973.91
2022-12-08T01:23:59.954Z,100982.34
2022-12-08T01:26:27.736Z,100981.28
2022-12-08T01:28:56.867Z,100976.84
2022-12-08T01:31:24.739Z,100972.06
2022-12-08T01:33:52.434Z,100961.31
2022-12-08T01:36:22.036Z,100962.31
2022-12-08T01:38:49.897Z,100963.38
2022-12-08T01:41:19.513Z,100979.06
2022-12-08T01:43:59.875Z,100979.84
2022-12-08T01:46:28.959Z,100985.63
2022-12-08T01:49:03.175Z,100986.22
2022-12-08T01:51:34.411Z,100976.75
2022-12-08T01:54:05.123Z,100972.31
2022-12-08T01:56:38.023Z,100971.78
2022-12-08T01:59:07.893Z,100962.31
2022-12-08T02:01:35.639Z,100967.00
2022-12-08T02:04:04.268Z,100964.84
2022-12-08T02:06:35.955Z,100959.63
2022-12-08T02:09:06.486Z,100965.09
2022-12-08T02:11:34.198Z,100958.25
2022-12-08T02:14:04.442Z,100952.25
2022-12-08T02:16:42.957Z,100953.81
2022-12-08T02:19:36.728Z,100938.38
2022-12-08T02:22:12.694Z,100937.81
2022-12-08T02:24:48.259Z,100937.81
2022-12-08T02:27:28.757Z,100927.34
2022-12-08T02:30:20.533Z,100923.91
2022-12-08T02:33:16.416Z,100919.69
2022-12-08T02:35:57.193Z,100919.94
2022-12-08T02:38:36.510Z,100919.16
2022-12-08T02:41:28.724Z,100919.94
2022-12-08T02:44:03.067Z,100922.09
2022-12-08T02:46:36.652Z,100917.63
2022-12-08T02:49:05.105Z,100914.81
2022-12-08T02:51:33.880Z,100914.56
2022-12-08T02:54:03.484Z,100905.13
2022-12-08T02:57:00.689Z,100892.03
2022-12-08T02:59:45.135Z,100897.03
2022-12-08T03:02:28.788Z,100889.97
2022-12-08T03:05:04.929Z,100888.13
2022-12-08T03:07:39.984Z,100879.25
2022-12-08T03:10:13.452Z,100880.28
2022-12-08T03:12:47.835Z,100886.84
2022-12-08T03:15:19.622Z,100874.56
2022-12-08T03:17:52.679Z,100877.97
2022-12-08T03:20:23.449Z,100877.50
2022-12-08T03:22:56.734Z,100882.50
2022-12-08T03:25:28.427Z,100882.25
2022-12-08T03:27:56.113Z,100882.03
2022-12-08T03:30:23.786Z,100874.97
2022-12-08T03:32:57.084Z,100873.94
2022-12-08T03:35:29.379Z,100875.75
2022-12-08T03:38:05.603Z,100867.66
2022-12-08T03:40:33.240Z,100871.06
2022-12-08T03:43:00.898Z,100865.81
2022-12-08T03:45:28.611Z,100859.03
2022-12-08T03:47:56.466Z,100852.97
2022-12-08T03:50:24.349Z,100851.41
2022-12-08T03:52:52.200Z,100840.94
2022-12-08T03:55:22.386Z,100844.81
2022-12-08T03:57:50.034Z,100849.25
2022-12-08T04:00:18.329Z,100836.41
2022-12-08T04:02:46.004Z,100836.41
2022-12-08T04:05:13.743Z,100841.09
2022-12-08T04:07:41.406Z,100840.53
2022-12-08T04:10:10.332Z,100848.63
2022-12-08T04:12:39.294Z,100840.78
2022-12-08T04:15:08.010Z,100841.34
2022-12-08T04:17:35.628Z,100836.09
2022-12-08T04:20:03.929Z,100842.13
2022-12-08T04:22:31.800Z,100834.28
2022-12-08T04:24:59.652Z,100827.44
2022-12-08T04:27:27.284Z,100825.06
2022-12-08T04:29:56.290Z,100818.75
2022-12-08T04:32:23.911Z,100826.59
2022-12-08T04:34:51.529Z,100825.00
2022-12-08T04:37:19.220Z,100826.59
2022-12-08T04:39:46.843Z,100823.97
2022-12-08T04:42:14.527Z,100817.69
2022-12-08T04:44:42.204Z,100816.66
2022-12-08T04:47:11.224Z,100809.59
2022-12-08T04:49:38.917Z,100817.22
2022-12-08T04:52:06.694Z,100824.53
2022-12-08T04:54:34.387Z,100819.28
2022-12-08T04:57:01.999Z,100820.06
2022-12-08T04:59:29.608Z,100816.66
2022-12-08T05:01:57.380Z,100811.19
2022-12-08T05:04:26.641Z,100815.63
2022-12-08T05:06:54.327Z,100811.19
2022-12-08T05:09:22.241Z,100815.63
2022-12-08T05:11:49.922Z,100810.63
2022-12-08T05:14:19.169Z,100807.22
2022-12-08T05:16:47.525Z,100809.28
2022-12-08T05:19:15.925Z,100807.47
2022-12-08T05:21:45.495Z,100809.28
2022-12-08T05:24:13.114Z,100813.50
2022-12-08T05:26:40.790Z,100813.50
2022-12-08T05:29:08.500Z,100808.81
2022-12-08T05:31:36.257Z,100811.97
2022-12-08T05:34:03.942Z,100807.56
2022-12-08T05:36:31.655Z,100810.72
2022-12-08T05:39:00.616Z,100807.03
2022-12-08T05:41:28.291Z,100811.50
2022-12-08T05:43:55.914Z,100800.00
2022-12-08T05:46:23.698Z,100794.22
2022-12-08T05:48:51.478Z,100785.81
2022-12-08T05:51:21.399Z,100798.34
2022-12-08T05:53:50.017Z,100797.53
2022-12-08T05:56:19.647Z,100795.94
2022-12-08T05:58:47.690Z,100793.59
2022-12-08T06:01:23.934Z,100801.44
2022-12-08T06:03:51.777Z,100795.66
2022-12-08T06:06:20.259Z,100787.25
2022-12-08T06:08:47.926Z,100789.31
2022-12-08T06:11:21.394Z,100791.13
2022-12-08T06:13:49.251Z,100790.34
2022-12-08T06:16:17.386Z,100794.78
2022-12-08T06:18:45.157Z,100794.22
2022-12-08T06:21:14.878Z,100790.81
2022-12-08T06:23:43.010Z,100789.25
2022-12-08T06:26:12.298Z,100777.97
2022-12-08T06:28:42.295Z,100780.59
2022-12-08T06:31:12.236Z,100777.97
2022-12-08T06:33:40.245Z,100785.03
2022-12-08T06:36:08.516Z,100790.50
2022-12-08T06:38:39.322Z,100788.69
2022-12-08T06:41:10.914Z,100788.69
2022-12-08T06:43:38.688Z,100787.09
2022-12-08T06:46:10.415Z,100795.19
2022-12-08T06:48:38.164Z,100793.84
2022-12-08T06:51:10.446Z,100793.06
2022-12-08T06:53:38.203Z,100788.06
2022-12-08T06:56:06.803Z,100794.31
2022-12-08T06:58:35.421Z,100797.41
2022-12-08T07:01:09.514Z,100794.25
2022-12-08T07:03:38.332Z,100794.50
2022-12-08T07:06:06.871Z,100789.47
2022-12-08T07:08:35.520Z,100788.13
2022-12-08T07:11:07.844Z,100786.22
2022-12-08T07:13:35.665Z,100796.94
2022-12-08T07:16:08.275Z,100784.56
2022-12-08T07:18:36.348Z,100787.44
2022-12-08T07:21:05.660Z,100786.63
2022-12-08T07:23:33.697Z,100791.88
2022-12-08T07:26:03.343Z,100789.72
2022-12-08T07:28:33.011Z,100796.22
2022-12-08T07:31:00.870Z,100786.00
2022-12-08T07:33:29.979Z,100788.06
2022-12-08T07:35:58.974Z,100784.41
2022-12-08T07:38:28.096Z,100789.88
2022-12-08T07:40:55.984Z,100789.09
2022-12-08T07:43:24.336Z,100791.16
2022-12-08T07:45:52.450Z,100794.00
2022-12-08T07:48:20.474Z,100797.63
2022-12-08T07:50:49.471Z,100792.66
2022-12-08T07:53:17.106Z,100789.00
2022-12-08T07:55:45.692Z,100786.63
2022-12-08T07:58:13.359Z,100792.66
2022-12-08T08:00:41.069Z,100800.50
2022-12-08T08:03:10.890Z,100792.09
2022-12-08T08:05:38.708Z,100794.47
2022-12-08T08:08:07.911Z,100797.63
2022-12-08T08:10:35.622Z,100794.22
2022-12-08T08:13:03.588Z,100792.66
2022-12-08T08:15:31.432Z,100794.13
2022-12-08T08:17:59.197Z,100789.72
2022-12-08T08:20:26.833Z,100791.78
2022-12-08T08:22:54.481Z,100801.44
2022-12-08T08:25:23.779Z,100803.28
2022-12-08T08:27:51.872Z,100804.84
2022-12-08T08:30:20.901Z,100804.03
2022-12-08T08:32:49.298Z,100805.63
2022-12-08T08:35:17.702Z,100806.44
2022-12-08T08:37:48.797Z,100819.03
2022-12-08T08:40:17.452Z,100811.97
2022-12-08T08:42:46.439Z,100817.53
2022-12-08T08:45:14.076Z,100817.53
2022-12-08T08:47:41.922Z,100811.06
2022-12-08T08:50:10.072Z,100818.41
2022-12-08T08:52:37.760Z,100817.94
2022-12-08T08:55:05.922Z,100824.19
2022-12-08T08:57:33.563Z,100824.19
2022-12-08T09:00:03.177Z,100815.25
2022-12-08T09:02:31.142Z,100815.69
2022-12-08T09:04:58.866Z,100814.38
2022-12-08T09:07:26.558Z,100811.19
2022-12-08T09:10:01.259Z,100805.94
2022-12-08T09:12:29.239Z,100804.59
2022-12-08T09:14:56.926Z,100809.59
2022-12-08T09:17:25.959Z,100812.22
2022-12-08T09:19:53.634Z,100816.19
2022-12-08T09:22:21.938Z,100808.91
2022-12-08T09:24:49.580Z,100812.53
2022-12-08T09:27:17.244Z,100807.84
2022-12-08T09:29:44.897Z,100803.97
2022-12-08T09:32:12.516Z,100806.94
2022-12-08T09:34:41.595Z,100804.56
2022-12-08T09:37:09.329Z,100801.94
2022-12-08T09:39:37.071Z,100806.47
2022-12-08T09:42:07.785Z,100803.84
2022-12-08T09:44:51.251Z,100802.34
2022-12-08T09:47:23.793Z,100798.66
2022-12-08T09:49:59.087Z,100803.97
2022-12-08T09:52:31.180Z,100801.44
2022-12-08T09:55:01.659Z,100804.41
2022-12-08T09:57:30.836Z,100816.78
2022-12-08T10:00:05.506Z,100810.28
2022-12-08T10:02:33.584Z,100812.94
2022-12-08T10:05:02.722Z,100813.28
2022-12-08T10:07:39.236Z,100800.97
2022-12-08T10:10:19.041Z,100806.50
2022-12-08T10:12:55.096Z,100807.56
2022-12-08T10:15:42.571Z,100809.47
2022-12-08T10:18:14.816Z,100804.78
2022-12-08T10:20:47.352Z,100806.13
2022-12-08T10:23:25.720Z,100811.44
2022-12-08T10:26:00.100Z,100804.94
2022-12-08T10:28:27.765Z,100799.44
2022-12-08T10:30:55.790Z,100792.38
2022-12-08T10:33:24.372Z,100794.75
2022-12-08T10:35:55.038Z,100795.31
2022-12-08T10:38:27.320Z,100791.66
2022-12-08T10:41:01.852Z,100786.44
2022-12-08T10:43:29.545Z,100784.34
2022-12-08T10:46:09.509Z,100780.94
2022-12-08T10:48:37.296Z,100776.50
2022-12-08T10:51:06.542Z,100785.16
2022-12-08T10:53:45.206Z,100785.63
2022-12-08T10:56:16.368Z,100779.03
2022-12-08T10:58:46.361Z,100777.22
2022-12-08T11:01:17.707Z,100777.69
2022-12-08T11:03:48.729Z,100789.44
2022-12-08T11:06:20.690Z,100788.34
2022-12-08T11:08:52.453Z,100788.34
2022-12-08T11:11:29.050Z,100780.75
2022-12-08T11:13:57.480Z,100778.34
2022-12-08T11:16:25.257Z,100787.47
2022-12-08T11:18:58.085Z,100783.75
2022-12-08T11:21:36.912Z,100782.41
2022-12-08T11:24:23.348Z,100785.50
2022-12-08T11:26:54.501Z,100775.28
2022-12-08T11:29:22.710Z,100783.94
2022-12-08T11:31:54.514Z,100769.16
2022-12-08T11:34:31.611Z,100768.06
2022-12-08T11:37:00.855Z,100756.69
2022-12-08T11:39:31.936Z,100751.91
2022-12-08T11:42:03.737Z,100746.13
2022-12-08T11:44:39.853Z,100736.38
2022-12-08T11:47:15.207Z,100735.84
2022-12-08T11:49:44.255Z,100734.25
2022-12-08T11:52:22.747Z,100731.94
2022-12-08T11:54:59.073Z,100732.00
2022-12-08T11:57:29.568Z,100724.78
2022-12-08T11:59:59.280Z,100722.72
2022-12-08T12:02:30.130Z,100723.75
2022-12-08T12:05:02.062Z,100719.56
2022-12-08T12:07:51.734Z,100719.06
2022-12-08T12:10:33.700Z,100714.19
2022-12-08T12:13:14.192Z,100717.88
2022-12-08T12:16:08.817Z,100710.09
2022-12-08T12:18:45.339Z,100711.81
2022-12-08T12:21:19.260Z,100716.88
2022-12-08T12:23:54.450Z,100719.91
2022-12-08T12:26:23.502Z,100702.25
2022-12-08T12:28:54.414Z,100701.50
2022-12-08T12:31:25.988Z,100699.09
2022-12-08T12:33:57.363Z,100707.84
2022-12-08T12:36:25.596Z,100701.34
2022-12-08T12:39:01.991Z,100704.22
2022-12-08T12:41:33.833Z,100699.66
2022-12-08T12:44:24.390Z,100694.59
2022-12-08T12:46:57.760Z,100689.56
2022-12-08T12:50:16.112Z,100684.91
2022-12-08T12:52:48.522Z,100684.56
2022-12-08T12:55:52.236Z,100690.94
2022-12-08T12:58:39.010Z,100693.19
2022-12-08T13:01:39.836Z,100692.41
2022-12-08T13:04:10.661Z,100685.53
2022-12-08T13:06:42.125Z,100685.22
2022-12-08T13:09:21.995Z,100679.63
2022-12-08T13:11:53.595Z,100677.75
2022-12-08T13:14:32.093Z,100686.19
2022-12-08T13:17:02.169Z,100680.31
2022-12-08T13:19:34.450Z,100682.34
2022-12-08T13:22:02.393Z,100671.53
2022-12-08T13:24:36.076Z,100680.16
2022-12-08T13:27:34.109Z,100676.75
2022-12-08T13:30:37.638Z,100676.97
2022-12-08T13:33:19.795Z,100674.81
2022-12-08T13:35:58.473Z,100665.38
2022-12-08T13:38:30.741Z,100660.91
2022-12-08T13:41:02.464Z,100666.47
2022-12-08T13:43:48.381Z,100664.88
2022-12-08T13:47:16.647Z,100665.38
2022-12-08T13:58:06.110Z,100658.47
2022-12-08T14:00:34.099Z,100661.81
2022-12-08T14:03:03.209Z,100667.25
2022-12-08T14:06:11.166Z,100671.03
2022-12-08T14:11:34.497Z,100675.63
2022-12-08T14:14:04.207Z,100671.16
2022-12-08T14:16:38.209Z,100676.94
2022-12-08T14:19:07.747Z,100672.47
2022-12-08T14:21:36.747Z,100669.81
2022-12-08T14:24:04.549Z,100668.53
2022-12-08T14:26:35.539Z,100678.50
2022-12-08T14:29:03.312Z,100677.44
2022-12-08T14:31:31.082Z,100677.19
2022-12-08T14:33:58.869Z,100674.03
2022-12-08T14:36:26.876Z,100675.88
2022-12-08T14:38:57.623Z,100683.69
2022-12-08T14:41:33.801Z,100674.44
2022-12-08T14:44:02.844Z,100681.00
2022-12-08T14:46:30.609Z,100682.00
2022-12-08T14:48:58.776Z,100675.09
2022-12-08T14:51:32.125Z,100673.19
2022-12-08T14:54:06.362Z,100677.53
2022-12-08T14:56:39.177Z,100674.28
2022-12-08T14:59:13.600Z,100680.47
2022-12-08T15:01:42.401Z,100676.50
2022-12-08T15:04:18.363Z,100674.06
2022-12-08T15:06:53.696Z,100665.59
2022-12-08T15:09:32.944Z,100662.31
2022-12-08T15:12:04.557Z,100666.44
2022-12-08T15:14:35.156Z,100662.69
2022-12-08T15:17:02.866Z,100674.72
2022-12-08T15:19:32.316Z,100664.66
2022-12-08T15:22:08.661Z,100670.41
2022-12-08T15:24:37.707Z,100665.59
2022-12-08T15:27:05.355Z,100655.31
2022-12-08T15:29:33.039Z,100656.31
2022-12-08T15:32:02.680Z,100658.88
2022-12-08T15:34:31.547Z,100662.44
2022-12-08T15:36:59.266Z,100655.09
2022-12-08T15:39:33.400Z,100658.19
2022-12-08T15:42:04.106Z,100665.50
2022-12-08T15:44:32.920Z,100677.78
2022-12-08T15:47:01.844Z,100666.53
2022-12-08T15:49:29.588Z,100677.31
2022-12-08T15:52:09.300Z,100682.03
2022-12-08T15:54:39.458Z,100671.88
2022-12-08T15:57:22.223Z,100675.84
2022-12-08T16:00:04.683Z,100676.94
2022-12-08T16:02:56.324Z,100670.16
2022-12-08T16:05:42.908Z,100664.94
2022-12-08T16:08:30.129Z,100672.78
2022-12-08T16:14:47.113Z,100669.22
2022-12-08T16:16:51.911Z,100678.03
2022-12-08T16:19:19.610Z,100674.81
2022-12-08T16:24:34.975Z,100669.91
2022-12-08T16:29:52.156Z,100676.84
2022-12-08T16:32:19.827Z,100662.97
2022-12-08T16:34:47.681Z,100658.75
2022-12-08T16:37:16.406Z,100654.78
2022-12-08T16:39:46.092Z,100652.19
2022-12-08T16:42:32.396Z,100659.97
2022-12-08T16:45:03.855Z,100659.66
2022-12-08T16:47:32.055Z,100651.25
2022-12-08T16:49:59.749Z,100653.09
2022-12-08T16:52:27.467Z,100654.84
2022-12-08T16:54:55.096Z,100654.78
2022-12-08T16:57:22.789Z,100660.47
2022-12-08T16:59:50.461Z,100657.53
2022-12-08T17:02:19.539Z,100660.72
2022-12-08T17:04:47.386Z,100657.31
2022-12-08T17:07:15.085Z,100666.16
2022-12-08T17:09:42.766Z,100668.56
2022-12-08T17:12:11.664Z,100663.88
2022-12-08T17:14:39.351Z,100664.44
2022-12-08T17:17:07.171Z,100658.97
2022-12-08T17:19:36.249Z,100666.25
2022-12-08T17:22:04.496Z,100657.59
2022-12-08T17:24:32.540Z,100660.47
2022-12-08T17:27:03.976Z,100654.91
2022-12-08T17:29:32.400Z,100655.63
2022-12-08T17:32:00.372Z,100652.47
2022-12-08T17:34:28.064Z,100652.38
2022-12-08T17:36:57.174Z,100651.00
2022-12-08T17:39:25.276Z,100653.19
2022-12-08T17:41:52.935Z,100654.69
2022-12-08T17:44:21.113Z,100657.56
2022-12-08T17:46:52.952Z,100662.78
2022-12-08T17:49:23.565Z,100656.22
2022-12-08T17:51:53.251Z,100659.53
2022-12-08T17:54:26.523Z,100652.72
2022-12-08T17:56:55.163Z,100656.84
2022-12-08T17:59:22.835Z,100650.00
2022-12-08T18:01:52.446Z,100653.66
2022-12-08T18:04:20.400Z,100651.28
2022-12-08T18:06:48.145Z,100654.94
2022-12-08T18:09:16.460Z,100654.69
2022-12-08T18:11:47.046Z,100653.34
2022-12-08T18:14:15.117Z,100647.31
2022-12-08T18:16:44.083Z,100656.19
2022-12-08T18:19:12.670Z,100651.44
2022-12-08T18:21:40.271Z,100659.72
2022-12-08T18:24:08.759Z,100652.94
2022-12-08T18:26:36.361Z,100651.13
2022-12-08T18:29:05.392Z,100649.88
2022-12-08T18:31:33.083Z,100651.44
2022-12-08T18:34:00.808Z,100652.47
2022-12-08T18:36:28.493Z,100642.78
2022-12-08T18:38:56.349Z,100639.63
2022-12-08T18:41:25.934Z,100645.91
2022-12-08T18:43:54.297Z,100650.31
2022-12-08T18:46:23.871Z,100654.44
2022-12-08T18:48:53.346Z,100660.69
2022-12-08T18:51:23.044Z,100663.28
2022-12-08T18:53:51.108Z,100664.88
2022-12-08T18:56:23.701Z,100665.66
2022-12-08T18:58:51.452Z,100662.84
2022-12-08T19:01:19.686Z,100665.44
2022-12-08T19:06:38.441Z,100671.13
2022-12-08T19:09:06.483Z,100668.53
2022-12-08T19:11:34.152Z,100666.47
2022-12-08T19:14:01.844Z,100660.44
2022-12-08T19:16:29.601Z,100665.91
2022-12-08T19:18:58.681Z,100671.38
2022-12-08T19:21:26.364Z,100676.91
2022-12-08T19:23:55.796Z,100673.28
2022-12-08T19:26:23.540Z,100672.03
2022-12-08T19:28:51.248Z,100674.13
2022-12-08T19:31:19.025Z,100667.09
2022-12-08T19:33:46.802Z,100667.44
2022-12-08T19:36:18.746Z,100672.66
2022-12-08T19:39:04.077Z,100674.78
2022-12-08T19:42:01.371Z,100675.34
2022-12-08T19:44:47.669Z,100680.91
2022-12-08T19:47:16.062Z,100682.16
2022-12-08T19:49:43.601Z,100678.75
2022-12-08T19:52:12.618Z,100683.97
2022-12-08T19:54:40.318Z,100673.53
2022-12-08T19:57:08.042Z,100675.34
2022-12-08T19:59:35.730Z,100677.75
2022-12-08T20:02:03.476Z,100687.16
2022-12-08T20:04:31.292Z,100677.50
2022-12-08T20:06:59.016Z,100684.06
2022-12-08T20:09:28.292Z,100687.78
2022-12-08T20:11:55.977Z,100686.78
2022-12-08T20:14:23.980Z,100693.34
2022-12-08T20:16:52.041Z,100692.63
2022-12-08T20:19:19.905Z,100697.88
2022-12-08T20:21:48.382Z,100693.75
2022-12-08T20:24:17.208Z,100686.69
2022-12-08T20:26:46.302Z,100695.09
2022-12-08T20:29:16.849Z,100695.63
2022-12-08T20:31:44.840Z,100694.28
2022-12-08T20:34:15.486Z,100693.28
2022-12-08T20:36:43.161Z,100688.84
2022-12-08T20:39:13.598Z,100692.81
2022-12-08T20:41:41.557Z,100697.53
2022-12-08T20:44:12.381Z,100701.50
2022-12-08T20:46:41.841Z,100705.25
2022-12-08T20:49:12.813Z,100705.00
2022-12-08T20:51:41.544Z,100705.00
2022-12-08T20:54:09.681Z,100702.94
2022-12-08T20:56:38.795Z,100698.03
2022-12-08T20:59:08.413Z,100701.97
2022-12-08T21:01:37.524Z,100700.16
2022-12-08T21:04:05.770Z,100702.56
2022-12-08T21:06:33.586Z,100706.19
2022-12-08T21:09:02.714Z,100702.47
2022-12-08T21:11:37.481Z,100711.34
2022-12-08T21:14:05.345Z,100703.50
2022-12-08T21:16:33.358Z,100711.66
2022-12-08T21:19:02.448Z,100708.56
2022-12-08T21:21:30.309Z,100709.81
2022-12-08T21:23:57.989Z,100718.97
2022-12-08T21:26:26.506Z,100709.78
2022-12-08T21:28:55.307Z,100711.03
2022-12-08T21:31:25.329Z,100709.44
2022-12-08T21:33:53.221Z,100711.34
2022-12-08T21:36:23.032Z,100710.88
2022-12-08T21:38:51.291Z,100713.03
2022-12-08T21:41:41.658Z,100706.75
2022-12-08T21:44:12.901Z,100707.06
2022-12-08T21:46:40.705Z,100713.88
2022-12-08T21:49:08.951Z,100713.66
2022-12-08T21:51:42.196Z,100712.59
2022-12-08T21:54:15.025Z,100705.81
2022-12-08T21:56:46.560Z,100716.25
2022-12-08T21:59:15.370Z,100713.88
2022-12-08T22:01:43.839Z,100718.56
2022-12-08T22:04:12.164Z,100719.91
2022-12-08T22:06:41.520Z,100720.44
2022-12-08T22:09:11.812Z,100719.44
2022-12-08T22:11:39.820Z,100726.78
2022-12-08T22:14:13.832Z,100723.41
2022-12-08T22:16:42.527Z,100727.81
2022-12-08T22:19:10.673Z,100718.94
2022-12-08T22:21:38.487Z,100728.94
2022-12-08T22:24:08.636Z,100729.72
2022-12-08T22:26:36.746Z,100731.31
2022-12-08T22:29:04.501Z,100732.09
2022-12-08T22:31:32.945Z,100733.69
2022-12-08T22:34:01.004Z,100737.66
2022-12-08T22:36:29.848Z,100729.56
2022-12-08T22:38:57.571Z,100719.91
2022-12-08T22:41:26.507Z,100717.28
2022-12-08T22:43:54.350Z,100711.78
2022-12-08T22:46:24.457Z,100710.22
2022-12-08T22:48:53.186Z,100706.00
2022-12-08T22:51:21.396Z,100705.94
2022-12-08T22:53:49.410Z,100701.97
2022-12-08T22:56:18.652Z,100711.34
2022-12-08T22:58:48.378Z,100700.25
2022-12-08T23:01:24.931Z,100707.78
2022-12-08T23:03:52.861Z,100705.41
2022-12-08T23:06:20.611Z,100704.03
2022-12-08T23:08:48.481Z,100705.31
2022-12-08T23:11:16.331Z,100705.00
2022-12-08T23:13:44.165Z,100697.41
2022-12-08T23:16:14.392Z,100707.06
2022-12-08T23:18:44.589Z,100713.31
2022-12-08T23:21:15.503Z,100710.41
2022-12-08T23:23:43.882Z,100703.09
2022-12-08T23:26:15.951Z,100711.97
2022-12-08T23:28:43.643Z,100710.16
2022-12-08T23:31:11.346Z,100707.78
2022-12-08T23:33:40.554Z,100705.16
2022-12-08T23:36:09.193Z,100704.38
2022-12-08T23:38:37.003Z,100708.34
2022-12-08T23:41:06.574Z,100700.25
2022-12-08T23:43:35.222Z,100712.31
2022-12-08T23:46:03.576Z,100705.00
2022-12-08T23:48:34.526Z,100704.53
2022-12-08T23:51:03.847Z,100701.13
2022-12-08T23:53:34.073Z,100693.03
2022-12-08T23:56:02.777Z,100693.03
2022-12-08T23:58:31.397Z,100698.81
